createdAt,value
2022-12-25T00:01:08.523Z,4.36
2022-12-25T00:04:12.413Z,4.22
2022-12-25T00:07:15.239Z,4.41
2022-12-25T00:10:18.437Z,4.46
2022-12-25T00:13:21.194Z,4.38
2022-12-25T00:16:26.936Z,4.49
2022-12-25T00:19:29.813Z,4.42
2022-12-25T00:22:32.743Z,4.34
2022-12-25T00:25:39.481Z,4.27
2022-12-25T00:28:42.678Z,4.25
2022-12-25T00:31:46.962Z,4.35
2022-12-25T00:34:49.816Z,4.36
2022-12-25T00:37:52.587Z,4.37
2022-12-25T00:40:56.740Z,4.61
2022-12-25T00:44:00.673Z,4.74
2022-12-25T00:47:05.021Z,4.80
2022-12-25T00:50:09.218Z,4.75
2022-12-25T00:53:13.072Z,4.74
2022-12-25T00:56:15.857Z,4.82
2022-12-25T00:59:18.813Z,4.98
2022-12-25T01:02:26.252Z,5.08
2022-12-25T01:05:29.289Z,5.38
2022-12-25T01:08:34.225Z,5.73
2022-12-25T01:11:37.053Z,5.98
2022-12-25T01:14:39.840Z,5.94
2022-12-25T01:17:44.771Z,6.11
2022-12-25T01:20:48.087Z,6.20
2022-12-25T01:23:52.564Z,6.23
2022-12-25T01:26:55.414Z,6.21
2022-12-25T01:29:58.312Z,6.26
2022-12-25T01:33:02.753Z,6.34
2022-12-25T01:36:12.637Z,6.42
2022-12-25T01:39:15.489Z,6.41
2022-12-25T01:42:19.367Z,6.38
2022-12-25T01:45:44.450Z,6.43
2022-12-25T01:48:49.361Z,6.45
2022-12-25T01:51:54.566Z,6.42
2022-12-25T01:55:00.677Z,6.42
2022-12-25T01:58:03.765Z,6.46
2022-12-25T02:01:06.828Z,6.51
2022-12-25T02:04:16.607Z,6.35
2022-12-25T02:07:21.612Z,6.27
2022-12-25T02:10:24.383Z,6.17
2022-12-25T02:13:27.167Z,6.13
2022-12-25T02:16:35.594Z,6.11
2022-12-25T02:20:32.922Z,6.02
2022-12-25T02:24:06.379Z,5.95
2022-12-25T02:27:18.398Z,6.03
2022-12-25T02:30:22.826Z,6.11
2022-12-25T02:33:50.499Z,6.08
2022-12-25T02:37:02.668Z,6.07
2022-12-25T02:40:13.224Z,6.01
2022-12-25T02:43:38.838Z,5.87
2022-12-25T02:47:02.825Z,5.84
2022-12-25T02:50:26.630Z,5.60
2022-12-25T02:53:50.892Z,5.67
2022-12-25T02:57:15.531Z,5.48
2022-12-25T03:00:37.069Z,5.39
2022-12-25T03:04:07.477Z,5.45
2022-12-25T03:07:13.336Z,5.50
2022-12-25T03:10:35.178Z,5.50
2022-12-25T03:13:41.641Z,5.47
2022-12-25T03:16:50.963Z,5.46
2022-12-25T03:20:13.728Z,5.39
2022-12-25T03:23:38.894Z,5.28
2022-12-25T03:26:56.939Z,5.17
2022-12-25T03:30:18.079Z,5.08
2022-12-25T03:33:45.153Z,5.11
2022-12-25T03:37:02.334Z,5.13
2022-12-25T03:40:42.568Z,5.03
2022-12-25T03:44:12.965Z,5.15
2022-12-25T03:47:37.690Z,5.26
2022-12-25T03:51:03.903Z,5.18
2022-12-25T03:54:29.804Z,5.15
2022-12-25T03:57:52.777Z,5.21
2022-12-25T04:01:18.662Z,5.22
2022-12-25T04:04:40.087Z,5.35
2022-12-25T04:08:01.072Z,5.46
2022-12-25T04:11:23.755Z,5.45
2022-12-25T04:14:45.225Z,5.55
2022-12-25T04:18:10.331Z,5.50
2022-12-25T04:21:31.351Z,5.51
2022-12-25T04:24:52.560Z,5.52
2022-12-25T04:28:19.777Z,5.49
2022-12-25T04:31:41.358Z,5.54
2022-12-25T04:35:02.879Z,5.45
2022-12-25T04:38:05.832Z,5.52
2022-12-25T04:41:10.070Z,5.45
2022-12-25T04:44:14.306Z,5.42
2022-12-25T04:47:16.982Z,5.38
2022-12-25T04:50:20.001Z,5.23
2022-12-25T04:53:23.079Z,5.09
2022-12-25T04:56:25.821Z,5.00
2022-12-25T04:59:30.127Z,4.88
2022-12-25T05:02:33.355Z,4.91
2022-12-25T05:05:39.287Z,4.86
2022-12-25T05:08:42.108Z,4.78
2022-12-25T05:11:44.763Z,4.70
2022-12-25T05:14:48.823Z,4.57
2022-12-25T05:17:51.550Z,4.54
2022-12-25T05:20:54.896Z,4.53
2022-12-25T05:23:57.600Z,4.48
2022-12-25T05:27:00.363Z,4.37
2022-12-25T05:30:05.282Z,4.24
2022-12-25T05:33:08.310Z,4.21
2022-12-25T05:36:13.039Z,4.13
2022-12-25T05:39:15.770Z,4.07
2022-12-25T05:42:18.556Z,4.11
2022-12-25T05:45:22.762Z,4.07
2022-12-25T05:48:25.495Z,3.98
2022-12-25T05:51:28.253Z,3.98
2022-12-25T05:54:30.979Z,3.94
2022-12-25T05:57:33.695Z,4.05
2022-12-25T06:00:38.101Z,4.06
2022-12-25T06:03:41.014Z,4.11
2022-12-25T06:06:43.996Z,4.10
2022-12-25T06:09:46.887Z,4.08
2022-12-25T06:12:49.601Z,4.05
2022-12-25T06:15:53.823Z,3.98
2022-12-25T06:18:56.817Z,3.87
2022-12-25T06:21:59.640Z,3.77
2022-12-25T06:25:02.486Z,3.72
2022-12-25T06:28:05.174Z,3.81
2022-12-25T06:31:11.683Z,3.93
2022-12-25T06:34:16.622Z,3.94
2022-12-25T06:37:19.866Z,3.97
2022-12-25T06:40:22.683Z,3.96
2022-12-25T06:43:25.399Z,3.74
2022-12-25T06:46:30.375Z,3.69
2022-12-25T06:49:33.222Z,3.60
2022-12-25T06:52:36.101Z,3.55
2022-12-25T06:55:38.873Z,3.54
2022-12-25T06:58:43.235Z,3.56
2022-12-25T07:01:50.072Z,3.61
2022-12-25T07:04:53.577Z,3.92
2022-12-25T07:07:56.224Z,4.06
2022-12-25T07:10:59.118Z,4.27
2022-12-25T07:14:01.824Z,4.46
2022-12-25T07:17:06.142Z,4.62
2022-12-25T07:20:09.859Z,4.79
2022-12-25T07:23:12.712Z,5.11
2022-12-25T07:26:17.471Z,5.64
2022-12-25T07:29:20.228Z,6.24
2022-12-25T07:32:24.501Z,6.97
2022-12-25T07:35:27.248Z,7.54
2022-12-25T07:38:30.055Z,7.79
2022-12-25T07:41:32.966Z,8.36
2022-12-25T07:44:49.611Z,8.63
2022-12-25T07:47:55.246Z,8.45
2022-12-25T07:51:00.093Z,7.85
2022-12-25T07:54:02.954Z,7.96
2022-12-25T07:57:05.719Z,8.49
2022-12-25T08:00:09.812Z,8.97
2022-12-25T08:03:17.017Z,9.71
2022-12-25T08:06:20.922Z,9.94
2022-12-25T08:09:23.881Z,10.28
2022-12-25T08:12:26.713Z,10.68
2022-12-25T08:15:30.622Z,10.25
2022-12-25T08:18:36.359Z,10.09
2022-12-25T08:21:39.399Z,10.03
2022-12-25T08:24:42.095Z,11.17
2022-12-25T08:27:44.853Z,12.08
2022-12-25T08:30:47.651Z,12.49
2022-12-25T08:33:54.193Z,12.20
2022-12-25T08:36:56.988Z,12.02
2022-12-25T08:39:59.780Z,11.26
2022-12-25T08:43:02.596Z,11.09
2022-12-25T08:46:05.900Z,10.87
2022-12-25T08:49:10.091Z,10.92
2022-12-25T08:52:12.886Z,11.04
2022-12-25T08:55:16.801Z,10.33
2022-12-25T08:58:20.001Z,9.98
2022-12-25T09:01:22.979Z,9.55
2022-12-25T09:04:27.469Z,9.45
2022-12-25T09:07:30.165Z,9.41
2022-12-25T09:10:35.635Z,9.40
2022-12-25T09:13:39.428Z,9.32
2022-12-25T09:16:42.158Z,9.44
2022-12-25T09:19:46.495Z,9.71
2022-12-25T09:22:49.592Z,9.91
2022-12-25T09:25:52.396Z,10.06
2022-12-25T09:28:55.254Z,10.07
2022-12-25T09:31:58.195Z,10.20
2022-12-25T09:35:02.578Z,10.63
2022-12-25T09:38:05.351Z,10.99
2022-12-25T09:41:14.795Z,11.26
2022-12-25T09:44:22.689Z,12.00
2022-12-25T09:47:28.541Z,12.82
2022-12-25T09:50:41.214Z,13.61
2022-12-25T09:53:51.812Z,14.06
2022-12-25T09:56:54.634Z,14.60
2022-12-25T09:59:57.377Z,14.99
2022-12-25T10:03:09.382Z,15.34
2022-12-25T10:06:20.837Z,15.12
2022-12-25T10:09:41.982Z,15.26
2022-12-25T10:12:54.991Z,15.22
2022-12-25T10:16:11.652Z,15.08
2022-12-25T10:19:28.160Z,15.64
2022-12-25T10:22:36.036Z,16.24
2022-12-25T10:25:40.075Z,16.81
2022-12-25T10:28:44.804Z,17.01
2022-12-25T10:31:49.687Z,17.58
2022-12-25T10:34:52.575Z,17.88
2022-12-25T10:38:00.160Z,18.79
2022-12-25T10:41:19.765Z,19.29
2022-12-25T10:44:24.602Z,19.35
2022-12-25T10:47:29.793Z,19.57
2022-12-25T10:50:33.789Z,19.74
2022-12-25T10:53:41.690Z,19.44
2022-12-25T10:56:53.089Z,19.04
2022-12-25T10:59:56.884Z,18.56
2022-12-25T11:03:00.284Z,18.27
2022-12-25T11:06:04.358Z,18.04
2022-12-25T11:09:16.556Z,18.31
2022-12-25T11:12:21.834Z,18.67
2022-12-25T11:15:39.149Z,19.32
2022-12-25T11:18:47.786Z,19.68
2022-12-25T11:21:52.586Z,19.79
2022-12-25T11:24:56.739Z,19.64
2022-12-25T11:28:00.942Z,20.37
2022-12-25T11:31:08.073Z,21.13
2022-12-25T11:34:16.963Z,22.02
2022-12-25T11:37:24.136Z,22.20
2022-12-25T11:40:41.775Z,21.71
2022-12-25T11:43:48.818Z,21.36
2022-12-25T11:46:52.199Z,21.07
2022-12-25T11:50:01.016Z,21.15
2022-12-25T11:53:10.161Z,21.07
2022-12-25T11:56:18.788Z,20.88
2022-12-25T11:59:26.849Z,21.37
2022-12-25T12:02:36.581Z,21.79
2022-12-25T12:05:45.345Z,21.88
2022-12-25T12:08:54.070Z,21.23
2022-12-25T12:12:03.961Z,20.36
2022-12-25T12:15:17.214Z,20.27
2022-12-25T12:18:22.287Z,21.33
2022-12-25T12:21:28.203Z,22.06
2022-12-25T12:24:37.892Z,22.28
2022-12-25T12:27:43.497Z,22.00
2022-12-25T12:30:57.729Z,21.41
2022-12-25T12:34:00.565Z,20.29
2022-12-25T12:37:07.778Z,19.45
2022-12-25T12:40:26.091Z,19.10
2022-12-25T12:43:36.384Z,19.05
2022-12-25T12:46:49.648Z,18.39
2022-12-25T12:49:57.889Z,16.35
2022-12-25T12:53:15.415Z,15.68
2022-12-25T12:56:20.022Z,15.20
2022-12-25T12:59:25.057Z,14.44
2022-12-25T13:03:02.851Z,13.62
2022-12-25T13:06:14.560Z,13.43
2022-12-25T13:09:27.476Z,13.07
2022-12-25T13:12:30.580Z,12.81
2022-12-25T13:15:35.780Z,12.57
2022-12-25T13:18:39.818Z,12.52
2022-12-25T13:21:52.762Z,12.55
2022-12-25T13:24:57.553Z,12.54
2022-12-25T13:28:00.298Z,12.39
2022-12-25T13:31:07.019Z,12.23
2022-12-25T13:34:23.137Z,12.10
2022-12-25T13:37:28.481Z,11.83
2022-12-25T13:40:31.275Z,11.56
2022-12-25T13:43:34.106Z,11.53
2022-12-25T13:46:38.226Z,11.43
2022-12-25T13:49:41.304Z,11.16
2022-12-25T13:52:44.053Z,11.09
2022-12-25T13:55:50.162Z,10.95
2022-12-25T13:58:53.115Z,10.88
2022-12-25T14:01:57.802Z,10.80
2022-12-25T14:05:00.811Z,10.69
2022-12-25T14:08:12.438Z,10.66
2022-12-25T14:11:17.749Z,10.67
2022-12-25T14:14:24.306Z,10.65
2022-12-25T14:17:28.644Z,10.71
2022-12-25T14:20:36.951Z,10.68
2022-12-25T14:23:42.732Z,10.67
2022-12-25T14:26:45.612Z,10.65
2022-12-25T14:29:51.275Z,10.54
2022-12-25T14:32:56.528Z,10.55
2022-12-25T14:35:59.378Z,10.41
2022-12-25T14:39:05.631Z,10.33
2022-12-25T14:42:19.141Z,9.97
2022-12-25T14:45:26.929Z,9.71
2022-12-25T14:48:33.101Z,9.57
2022-12-25T14:51:39.174Z,9.50
2022-12-25T14:54:46.109Z,9.59
2022-12-25T14:57:51.806Z,9.61
2022-12-25T15:00:56.512Z,9.60
2022-12-25T15:04:15.708Z,9.41
2022-12-25T15:07:29.974Z,9.28
2022-12-25T15:13:56.544Z,9.43
2022-12-25T15:17:01.316Z,9.39
2022-12-25T15:20:08.867Z,9.33
2022-12-25T15:23:21.905Z,9.31
2022-12-25T15:26:25.470Z,9.09
2022-12-25T15:30:00.217Z,8.90
2022-12-25T15:32:51.302Z,8.76
2022-12-25T15:35:55.396Z,8.73
2022-12-25T15:38:58.170Z,8.58
2022-12-25T15:42:12.862Z,8.38
2022-12-25T15:45:20.499Z,8.32
2022-12-25T15:48:23.385Z,8.52
2022-12-25T15:51:27.520Z,8.43
2022-12-25T15:54:31.147Z,8.30
2022-12-25T15:57:35.180Z,8.23
2022-12-25T16:00:38.078Z,8.23
2022-12-25T16:03:42.212Z,8.25
2022-12-25T16:06:46.470Z,8.17
2022-12-25T16:09:49.529Z,8.15
2022-12-25T16:12:53.284Z,8.13
2022-12-25T16:15:56.163Z,8.08
2022-12-25T16:18:59.252Z,7.87
2022-12-25T16:22:11.763Z,7.82
2022-12-25T16:25:16.937Z,7.85
2022-12-25T16:28:19.743Z,7.85
2022-12-25T16:31:22.519Z,7.82
2022-12-25T16:34:25.249Z,7.78
2022-12-25T16:37:29.476Z,7.72
2022-12-25T16:40:32.517Z,7.64
2022-12-25T16:43:35.525Z,7.64
2022-12-25T16:46:40.298Z,7.53
2022-12-25T16:49:43.468Z,7.52
2022-12-25T16:52:47.572Z,7.50
2022-12-25T16:55:50.258Z,7.37
2022-12-25T16:58:53.000Z,7.36
2022-12-25T17:01:55.968Z,7.32
2022-12-25T17:05:00.452Z,7.26
2022-12-25T17:08:05.151Z,7.25
2022-12-25T17:11:07.990Z,7.26
2022-12-25T17:14:11.245Z,7.15
2022-12-25T17:17:14.379Z,7.15
2022-12-25T17:20:17.131Z,7.25
2022-12-25T17:23:21.424Z,7.26
2022-12-25T17:26:24.779Z,7.24
2022-12-25T17:29:27.478Z,7.15
2022-12-25T17:32:30.236Z,7.04
2022-12-25T17:35:35.699Z,7.07
2022-12-25T17:38:40.371Z,7.09
2022-12-25T17:41:43.053Z,7.10
2022-12-25T17:44:46.341Z,7.00
2022-12-25T17:47:49.027Z,7.17
2022-12-25T17:50:51.902Z,7.09
2022-12-25T17:53:58.210Z,7.09
2022-12-25T17:57:01.031Z,7.08
2022-12-25T18:00:04.603Z,7.12
2022-12-25T18:03:11.480Z,7.14
2022-12-25T18:06:17.237Z,7.25
2022-12-25T18:09:21.664Z,7.25
2022-12-25T18:12:24.338Z,7.30
2022-12-25T18:15:27.056Z,7.47
2022-12-25T18:18:29.960Z,7.33
2022-12-25T18:21:32.748Z,7.52
2022-12-25T18:24:37.447Z,7.57
2022-12-25T18:27:40.152Z,7.54
2022-12-25T18:30:45.297Z,7.55
2022-12-25T18:33:48.911Z,7.60
2022-12-25T18:36:51.595Z,7.65
2022-12-25T18:39:55.819Z,7.68
2022-12-25T18:43:03.175Z,7.79
2022-12-25T18:46:06.606Z,7.88
2022-12-25T18:49:11.024Z,7.85
2022-12-25T18:52:49.867Z,7.81
2022-12-25T18:55:40.329Z,7.90
2022-12-25T18:58:43.553Z,7.84
2022-12-25T19:01:46.660Z,7.80
2022-12-25T19:04:49.397Z,7.75
2022-12-25T19:07:52.261Z,7.64
2022-12-25T19:10:56.362Z,7.53
2022-12-25T19:13:59.100Z,7.42
2022-12-25T19:17:02.083Z,7.65
2022-12-25T19:20:06.255Z,7.65
2022-12-25T19:23:09.209Z,7.68
2022-12-25T19:26:13.375Z,7.53
2022-12-25T19:29:16.954Z,7.45
2022-12-25T19:32:19.816Z,7.25
2022-12-25T19:35:22.809Z,7.29
2022-12-25T19:38:25.791Z,7.22
2022-12-25T19:41:30.251Z,7.33
2022-12-25T19:44:33.276Z,7.33
2022-12-25T19:47:35.970Z,7.25
2022-12-25T19:50:38.741Z,7.35
2022-12-25T19:53:41.619Z,7.42
2022-12-25T19:56:45.909Z,7.41
2022-12-25T19:59:49.684Z,7.41
2022-12-25T20:02:52.586Z,7.57
2022-12-25T20:05:56.597Z,7.55
2022-12-25T20:09:03.834Z,7.62
2022-12-25T20:12:10.373Z,7.44
2022-12-25T20:15:13.780Z,7.53
2022-12-25T20:18:17.385Z,7.49
2022-12-25T20:21:22.639Z,7.53
2022-12-25T20:24:25.414Z,7.53
2022-12-25T20:27:29.508Z,7.45
2022-12-25T20:30:32.301Z,7.50
2022-12-25T20:33:36.299Z,7.41
2022-12-25T20:36:39.241Z,7.35
2022-12-25T20:39:42.139Z,7.38
2022-12-25T20:42:46.342Z,7.35
2022-12-25T20:45:51.646Z,7.45
2022-12-25T20:48:54.486Z,7.50
2022-12-25T20:52:03.018Z,7.58
2022-12-25T20:55:08.344Z,7.64
2022-12-25T20:58:12.596Z,7.60
2022-12-25T21:01:17.651Z,7.49
2022-12-25T21:04:20.469Z,7.53
2022-12-25T21:07:23.109Z,7.56
2022-12-25T21:10:25.742Z,7.54
2022-12-25T21:13:32.380Z,7.47
2022-12-25T21:16:35.485Z,7.52
2022-12-25T21:19:38.257Z,7.48
2022-12-25T21:22:41.326Z,7.56
2022-12-25T21:25:44.202Z,7.55
2022-12-25T21:28:51.465Z,7.44
2022-12-25T21:32:13.509Z,7.54
2022-12-25T21:35:16.343Z,7.50
2022-12-25T21:38:19.016Z,7.42
2022-12-25T21:41:21.955Z,7.43
2022-12-25T21:44:26.027Z,7.38
2022-12-25T21:48:00.353Z,7.36
2022-12-25T21:51:10.596Z,7.45
2022-12-25T21:54:14.818Z,7.46
2022-12-25T21:57:17.550Z,7.51
2022-12-25T22:00:29.220Z,7.50
2022-12-25T22:03:32.209Z,7.48
2022-12-25T22:06:54.512Z,7.55
2022-12-25T22:09:57.237Z,7.47
2022-12-25T22:13:19.478Z,7.49
2022-12-25T22:16:42.458Z,7.46
2022-12-25T22:19:45.419Z,7.50
2022-12-25T22:22:48.811Z,7.55
2022-12-25T22:25:51.498Z,7.58
2022-12-25T22:28:54.322Z,7.54
2022-12-25T22:31:58.651Z,7.61
2022-12-25T22:35:02.475Z,7.51
2022-12-25T22:38:05.337Z,7.60
2022-12-25T22:41:08.179Z,7.57
2022-12-25T22:44:18.623Z,7.53
2022-12-25T22:47:24.230Z,7.62
2022-12-25T22:50:27.206Z,7.66
2022-12-25T22:53:29.950Z,7.61
2022-12-25T22:56:32.631Z,7.60
2022-12-25T22:59:35.580Z,7.67
2022-12-25T23:02:40.065Z,7.84
2022-12-25T23:05:42.989Z,7.68
2022-12-25T23:08:45.717Z,7.63
2022-12-25T23:11:48.606Z,7.65
2022-12-25T23:14:51.453Z,7.83
2022-12-25T23:18:14.340Z,7.87
2022-12-25T23:21:36.689Z,7.71
2022-12-25T23:24:58.975Z,7.76
2022-12-25T23:28:01.666Z,7.73
2022-12-25T23:31:04.647Z,7.74
2022-12-25T23:34:09.844Z,7.70
2022-12-25T23:37:12.636Z,7.75
2022-12-25T23:40:15.669Z,7.82
2022-12-25T23:43:18.597Z,7.78
2022-12-25T23:46:21.443Z,7.75
2022-12-25T23:49:26.345Z,7.75
2022-12-25T23:52:29.055Z,7.61
2022-12-25T23:55:33.782Z,7.56
2022-12-25T23:58:37.453Z,7.49
